Time;durP1;ratioP1;P1;durP2;ratioP2;P2;SDS_P1;SDS_P2;PMS_P1;PMS_P2;Temp;Humidity;BMP_temperature;BMP_pressure;BME280_temperature;BME280_humidity;BME280_pressure;Samples;Min_cycle;Max_cycle;Signal;HPM_P1;HPM_P2
2023/01/02 00:00:36;;;;;;;5.32;1.83;;;;;;;2.91;100.00;99836.63;5143906;27;20392;-87
2023/01/02 00:03:03;;;;;;;3.42;1.40;;;;;;;2.70;100.00;99820.66;5131065;27;20478;-86
2023/01/02 00:05:30;;;;;;;2.88;1.40;;;;;;;2.32;100.00;99761.97;5144474;27;20405;-87
2023/01/02 00:08:00;;;;;;;2.78;1.20;;;;;;;2.37;100.00;99771.31;5128335;27;20055;-87
2023/01/02 00:10:27;;;;;;;3.42;2.00;;;;;;;2.44;100.00;99791.03;5131103;27;20043;-86
2023/01/02 00:12:56;;;;;;;3.40;1.40;;;;;;;2.47;100.00;99811.63;5147538;27;20042;-86
2023/01/02 00:15:23;;;;;;;4.63;1.80;;;;;;;2.32;100.00;99772.31;5124010;27;20043;-86
2023/01/02 00:17:49;;;;;;;4.13;1.52;;;;;;;2.39;100.00;99807.47;5146223;27;20062;-86
2023/01/02 00:20:16;;;;;;;3.75;1.55;;;;;;;2.30;100.00;99800.75;5130871;27;20050;-88
2023/01/02 00:22:43;;;;;;;4.82;1.77;;;;;;;2.01;100.00;99783.22;5128692;27;20051;-86
2023/01/02 00:25:12;;;;;;;3.78;1.67;;;;;;;2.30;100.00;99812.81;5150017;27;20388;-85
2023/01/02 00:27:39;;;;;;;3.20;1.50;;;;;;;1.95;100.00;99778.13;5151919;27;20050;-86
2023/01/02 00:30:06;;;;;;;2.95;1.65;;;;;;;1.91;100.00;99787.66;5148971;27;20057;-86
2023/01/02 00:32:33;;;;;;;4.22;1.83;;;;;;;2.01;100.00;99834.84;5134147;27;20046;-86
2023/01/02 00:35:02;;;;;;;2.65;1.38;;;;;;;1.90;100.00;99833.28;5126471;27;20115;-86
2023/01/02 00:37:32;;;;;;;3.22;1.60;;;;;;;2.07;100.00;99855.38;5146458;27;20652;-86
2023/01/02 00:39:58;;;;;;;2.88;1.45;;;;;;;2.05;100.00;99844.25;5129424;27;20043;-86
2023/01/02 00:42:25;;;;;;;2.97;1.50;;;;;;;2.12;100.00;99863.91;5135646;27;20039;-86
2023/01/02 00:44:52;;;;;;;5.18;1.50;;;;;;;2.04;100.00;99855.47;5127570;27;20090;-87
2023/01/02 00:47:19;;;;;;;3.13;1.30;;;;;;;1.97;100.00;99828.88;5133875;27;20476;-87
2023/01/02 00:49:46;;;;;;;3.58;1.35;;;;;;;2.01;100.00;99853.75;5127909;27;20057;-87
2023/01/02 00:52:12;;;;;;;2.03;1.20;;;;;;;1.97;100.00;99840.94;5133039;27;20479;-87
2023/01/02 00:54:39;;;;;;;3.45;1.33;;;;;;;2.13;100.00;99869.94;5126982;27;20070;-86
2023/01/02 00:57:06;;;;;;;2.35;1.30;;;;;;;2.17;100.00;99866.44;5127380;27;20046;-86
2023/01/02 00:59:33;;;;;;;2.08;1.23;;;;;;;2.09;100.00;99851.06;5132289;27;20484;-87
2023/01/02 01:02:00;;;;;;;2.72;1.30;;;;;;;1.94;100.00;99844.41;5123617;27;20086;-87
2023/01/02 01:04:27;;;;;;;1.73;1.10;;;;;;;2.07;100.00;99856.25;5129308;27;20042;-86
2023/01/02 01:06:54;;;;;;;1.83;1.23;;;;;;;1.99;100.00;99834.03;5130458;27;20557;-87
2023/01/02 01:09:20;;;;;;;2.65;1.40;;;;;;;2.11;100.00;99846.72;5121234;27;20051;-86
2023/01/02 01:11:47;;;;;;;2.40;1.30;;;;;;;2.08;100.00;99855.38;5134469;27;20415;-87
2023/01/02 01:14:14;;;;;;;3.13;1.40;;;;;;;2.05;100.00;99832.19;5131648;27;20047;-87
2023/01/02 01:16:41;;;;;;;2.03;1.20;;;;;;;2.05;100.00;99846.81;5135290;27;20054;-87
2023/01/02 01:19:08;;;;;;;2.78;1.35;;;;;;;2.16;100.00;99862.13;5131507;27;20165;-87
2023/01/02 01:21:35;;;;;;;1.85;1.30;;;;;;;2.07;100.00;99855.38;5134541;27;20045;-87
2023/01/02 01:24:01;;;;;;;3.08;1.50;;;;;;;2.14;100.00;99869.06;5135430;27;20059;-86
2023/01/02 01:26:28;;;;;;;1.88;1.20;;;;;;;2.17;100.00;99880.19;5153054;27;20050;-86
2023/01/02 01:28:55;;;;;;;3.25;1.30;;;;;;;2.15;100.00;99875.94;5125450;27;20051;-87
2023/01/02 01:31:23;;;;;;;2.55;1.30;;;;;;;1.87;100.00;99854.00;5146543;27;20054;-86
2023/01/02 01:33:50;;;;;;;2.70;1.30;;;;;;;1.82;100.00;99852.38;5137490;27;20039;-87
2023/01/02 01:36:25;;;;;;;2.75;1.40;;;;;;;2.02;100.00;99898.50;5137137;27;20043;-87
2023/01/02 01:38:52;;;;;;;1.70;1.20;;;;;;;1.96;100.00;99896.03;5132224;27;20055;-88
2023/01/02 01:41:21;;;;;;;1.85;1.20;;;;;;;1.90;100.00;99903.00;5134289;27;20053;-87
2023/01/02 01:43:59;;;;;;;1.92;1.20;;;;;;;1.88;100.00;99899.59;5129390;28;20100;-88
2023/01/02 01:46:41;;;;;;;3.15;1.50;;;;;;;1.82;100.00;99901.41;5128647;27;20050;-88
2023/01/02 01:49:12;;;;;;;2.70;1.40;;;;;;;1.59;100.00;99865.63;5135415;27;20054;-88
2023/01/02 01:51:49;;;;;;;2.47;1.25;;;;;;;1.73;100.00;99889.50;5135106;27;20050;-87
2023/01/02 01:54:21;;;;;;;2.10;1.23;;;;;;;1.28;100.00;99828.22;5145888;27;20450;-87
2023/01/02 01:56:53;;;;;;;2.85;1.33;;;;;;;1.85;100.00;99924.59;5135459;27;20043;-87
2023/01/02 01:59:20;;;;;;;2.38;1.20;;;;;;;1.61;100.00;99902.56;5135760;27;20047;-87
2023/01/02 02:01:49;;;;;;;2.10;1.30;;;;;;;1.56;100.00;99904.34;5120352;28;20051;-88
2023/01/02 02:04:21;;;;;;;3.05;1.40;;;;;;;1.48;100.00;99897.56;5115332;28;20055;-88
2023/01/02 02:06:50;;;;;;;3.35;1.40;;;;;;;1.60;100.00;99914.63;5134616;27;20437;-88
2023/01/02 02:09:22;;;;;;;4.05;1.50;;;;;;;1.56;100.00;99922.41;5129540;28;20047;-88
2023/01/02 02:11:49;;;;;;;4.05;1.60;;;;;;;1.47;100.00;99910.50;5133003;27;20057;-88
2023/01/02 02:14:16;;;;;;;2.88;1.50;;;;;;;1.47;100.00;99906.22;5158241;27;20073;-88
2023/01/02 02:17:10;;;;;;;4.20;1.40;;;;;;;1.60;100.00;99926.69;5139451;27;20404;-88
2023/01/02 02:20:15;;;;;;;3.75;1.60;;;;;;;1.60;100.00;99939.59;5155104;27;20485;-88
2023/01/02 02:23:08;;;;;;;5.25;1.90;;;;;;;1.41;100.00;99937.22;5133702;27;20047;-87
2023/01/02 02:26:00;;;;;;;3.92;1.70;;;;;;;1.55;100.00;99934.47;5138923;27;20499;-88
2023/01/02 02:29:05;;;;;;;4.32;1.80;;;;;;;1.52;100.00;99943.13;5139313;27;20438;-88
2023/01/02 02:31:38;;;;;;;4.00;1.65;;;;;;;1.55;100.00;99941.38;5052153;28;20179;-88
2023/01/02 02:34:11;;;;;;;3.05;1.50;;;;;;;1.51;100.00;99922.50;5117421;27;20417;-88
2023/01/02 02:36:44;;;;;;;2.17;1.40;;;;;;;1.60;100.00;99943.00;5137966;27;20433;-88
2023/01/02 02:39:10;;;;;;;3.95;1.50;;;;;;;1.71;100.00;99950.59;5138738;27;20472;-87
2023/01/02 02:42:05;;;;;;;2.67;1.40;;;;;;;1.80;100.00;99953.03;5153859;27;20050;-88
2023/01/02 02:44:40;;;;;;;2.83;1.38;;;;;;;1.42;100.00;99882.19;5138660;27;20049;-88
2023/01/02 02:47:18;;;;;;;3.10;1.60;;;;;;;1.88;100.00;99953.81;5138304;27;20050;-88
2023/01/02 02:50:04;;;;;;;2.95;1.23;;;;;;;1.67;100.00;99903.34;5152794;27;20054;-88
2023/01/02 02:52:33;;;;;;;2.67;1.20;;;;;;;2.00;100.00;99942.44;5126071;27;20039;-87
2023/01/02 02:55:05;;;;;;;3.25;1.40;;;;;;;1.69;100.00;99901.59;5157320;27;20053;-87
2023/01/02 02:57:33;;;;;;;2.03;1.10;;;;;;;1.99;100.00;99939.88;5156884;27;20054;-88
2023/01/02 03:00:03;;;;;;;4.40;1.20;;;;;;;2.16;100.00;99960.28;5157187;27;20054;-88
2023/01/02 03:02:30;;;;;;;2.15;1.23;;;;;;;2.18;100.00;99954.22;5132935;27;20047;-89
2023/01/02 03:05:04;;;;;;;1.73;1.20;;;;;;;2.11;100.00;99941.41;5148844;27;20043;-88
2023/01/02 03:07:37;;;;;;;1.40;1.10;;;;;;;2.34;100.00;99966.88;5157353;27;20042;-87
2023/01/02 03:10:24;;;;;;;3.13;1.30;;;;;;;2.01;100.00;99914.91;5137939;27;20119;-87
2023/01/02 03:12:56;;;;;;;1.92;1.13;;;;;;;2.42;100.00;99973.63;5124590;27;20047;-88
2023/01/02 03:15:36;;;;;;;2.13;1.20;;;;;;;2.49;100.00;99976.97;5138681;27;20452;-87
2023/01/02 03:18:18;;;;;;;1.40;1.10;;;;;;;2.46;100.00;99979.59;5129560;27;20055;-88
2023/01/02 03:20:57;;;;;;;2.10;1.20;;;;;;;2.21;100.00;99936.09;5129944;27;20368;-88
2023/01/02 03:23:27;;;;;;;2.17;1.10;;;;;;;2.44;100.00;99965.84;5132034;27;20050;-88
2023/01/02 03:25:56;;;;;;;2.63;1.10;;;;;;;2.35;100.00;99924.66;5130296;27;20110;-88
2023/01/02 03:28:25;;;;;;;1.38;1.15;;;;;;;2.38;100.00;99953.88;5137968;27;20050;-86
2023/01/02 03:30:56;;;;;;;1.30;1.10;;;;;;;2.22;100.00;99931.78;5133518;27;20050;-87
2023/01/02 03:33:27;;;;;;;2.22;1.30;;;;;;;2.36;100.00;99947.91;5132932;27;20049;-86
2023/01/02 03:36:01;;;;;;;1.40;1.10;;;;;;;2.55;100.00;99965.66;5117189;27;20051;-86
2023/01/02 03:38:46;;;;;;;1.98;1.10;;;;;;;2.46;100.00;99964.97;5135478;27;20047;-87
2023/01/02 03:41:45;;;;;;;2.22;1.20;;;;;;;2.26;100.00;99973.00;5126748;27;20059;-87
2023/01/02 03:44:15;;;;;;;3.22;1.20;;;;;;;1.74;100.00;99917.03;5111104;27;20054;-86
2023/01/02 03:47:04;;;;;;;2.55;1.35;;;;;;;1.95;100.00;99974.34;5137870;27;20484;-87
2023/01/02 03:49:39;;;;;;;3.00;1.30;;;;;;;1.64;100.00;99960.16;5132247;27;20043;-86
2023/01/02 03:52:06;;;;;;;3.97;1.65;;;;;;;1.41;100.00;99932.06;5152835;27;20125;-86
2023/01/02 03:54:33;;;;;;;2.92;1.40;;;;;;;1.28;100.00;99918.50;5137537;27;20051;-86
2023/01/02 03:57:19;;;;;;;2.33;1.27;;;;;;;1.64;100.00;99983.38;5121456;27;20378;-86
2023/01/02 04:00:02;;;;;;;2.88;1.60;;;;;;;1.63;100.00;100002.31;5138638;27;20046;-86
2023/01/02 04:02:43;;;;;;;2.55;1.40;;;;;;;1.46;100.00;99981.03;5127636;27;20045;-86
2023/01/02 04:05:10;;;;;;;2.35;1.30;;;;;;;1.57;100.00;100007.56;5151927;27;20125;-86
2023/01/02 04:07:47;;;;;;;2.63;1.20;;;;;;;1.56;100.00;100003.28;5122090;27;20047;-86
2023/01/02 04:10:15;;;;;;;1.80;1.15;;;;;;;1.59;100.00;100013.53;5135907;27;20055;-86
2023/01/02 04:12:47;;;;;;;2.13;1.30;;;;;;;1.19;100.00;99957.28;5127144;27;20038;-86
2023/01/02 04:15:18;;;;;;;2.10;1.20;;;;;;;1.45;100.00;100010.28;5151684;27;20046;-86
2023/01/02 04:18:18;;;;;;;2.03;1.20;;;;;;;1.64;100.00;100016.91;5145196;27;20046;-88
2023/01/02 04:20:49;;;;;;;2.03;1.23;;;;;;;1.35;100.00;99965.69;5121554;27;20087;-86
2023/01/02 04:23:27;;;;;;;2.05;1.30;;;;;;;1.48;100.00;99982.72;5140847;27;20051;-85
2023/01/02 04:26:23;;;;;;;2.05;1.20;;;;;;;1.66;100.00;100014.31;5147495;27;20047;-86
2023/01/02 04:28:50;;;;;;;1.67;1.10;;;;;;;1.54;100.00;99991.25;5129807;27;20484;-86
2023/01/02 04:31:20;;;;;;;3.92;1.27;;;;;;;1.35;100.00;99965.69;5154574;27;20050;-85
2023/01/02 04:33:52;;;;;;;1.90;1.13;;;;;;;1.69;100.00;100033.22;5154237;27;20050;-86
2023/01/02 04:36:18;;;;;;;1.50;1.15;;;;;;;1.59;100.00;100002.38;5136811;27;20050;-86
2023/01/02 04:38:45;;;;;;;4.18;1.10;;;;;;;1.46;100.00;99996.53;5121611;27;20047;-86
2023/01/02 04:41:16;;;;;;;1.42;1.00;;;;;;;1.33;100.00;99968.28;5136052;27;20051;-85
2023/01/02 04:43:43;;;;;;;1.10;0.90;;;;;;;1.57;100.00;99998.97;5154061;27;20620;-85
2023/01/02 04:46:10;;;;;;;1.83;0.90;;;;;;;1.63;100.00;100004.03;5135010;27;20055;-85
2023/01/02 04:48:36;;;;;;;2.45;1.02;;;;;;;1.66;100.00;99998.84;5136561;27;20449;-86
2023/01/02 04:51:03;;;;;;;1.30;1.05;;;;;;;1.49;100.00;99987.03;5127611;27;20522;-86
2023/01/02 04:53:30;;;;;;;1.10;1.00;;;;;;;1.58;100.00;99993.78;5136484;27;20038;-85
2023/01/02 04:55:57;;;;;;;1.45;0.90;;;;;;;1.63;100.00;100004.03;5153150;27;20035;-86
2023/01/02 04:58:25;;;;;;;1.83;1.17;;;;;;;1.86;100.00;100034.72;5146557;27;20488;-86
2023/01/02 05:00:53;;;;;;;1.60;1.05;;;;;;;1.80;100.00;100040.81;5136110;27;20043;-86
2023/01/02 05:03:20;;;;;;;1.10;1.00;;;;;;;1.58;100.00;100005.84;5129375;27;20499;-86
2023/01/02 05:05:46;;;;;;;2.78;1.50;;;;;;;1.60;100.00;100015.25;5116326;27;20126;-85
2023/01/02 05:08:13;;;;;;;2.13;1.17;;;;;;;1.54;100.00;100015.34;5139339;27;20042;-86
2023/01/02 05:10:42;;;;;;;3.00;1.20;;;;;;;1.82;100.00;100061.44;5131900;27;20054;-86
2023/01/02 05:13:09;;;;;;;1.42;0.90;;;;;;;1.79;100.00;100048.56;5135942;27;20061;-86
2023/01/02 05:15:35;;;;;;;1.20;0.93;;;;;;;1.45;100.00;100000.84;5136807;27;20042;-87
2023/01/02 05:18:02;;;;;;;1.83;1.05;;;;;;;1.71;100.00;100059.84;5136728;27;20135;-86
2023/01/02 05:20:29;;;;;;;2.28;1.27;;;;;;;1.37;100.00;100012.13;5136657;27;20390;-86
2023/01/02 05:25:41;;;;;;;2.45;1.00;;;;;;;1.38;100.00;100022.41;5142329;27;20046;-86
2023/01/02 05:28:08;;;;;;;3.17;1.00;;;;;;;1.32;100.00;100019.88;5122561;27;20046;-87
2023/01/02 05:30:37;;;;;;;2.28;1.35;;;;;;;1.67;100.00;100078.81;5121732;27;20051;-87
2023/01/02 05:33:04;;;;;;;1.50;1.00;;;;;;;1.31;100.00;100024.19;5142480;27;20054;-86
2023/01/02 05:35:32;;;;;;;2.03;1.10;;;;;;;1.47;100.00;100063.59;5121020;27;20050;-86
2023/01/02 05:38:00;;;;;;;1.92;1.10;;;;;;;1.51;100.00;100078.16;5133337;28;20047;-86
2023/01/02 05:40:27;;;;;;;1.30;1.10;;;;;;;1.39;100.00;100057.66;5133530;27;20047;-86
2023/01/02 05:42:53;;;;;;;3.10;1.05;;;;;;;1.26;100.00;100027.72;5126095;27;20399;-87
2023/01/02 05:45:21;;;;;;;1.80;1.10;;;;;;;1.30;100.00;100029.38;5156844;27;20060;-86
2023/01/02 05:47:47;;;;;;;3.08;1.23;;;;;;;1.63;100.00;100073.72;5140797;27;20384;-86
2023/01/02 05:50:14;;;;;;;1.58;1.05;;;;;;;1.50;100.00;100047.19;5140808;27;20050;-86
2023/01/02 05:52:41;;;;;;;3.65;1.10;;;;;;;1.64;100.00;100067.69;5120779;27;20050;-87
2023/01/02 05:55:12;;;;;;;1.83;1.10;;;;;;;1.47;100.00;100067.88;5134513;27;20381;-87
2023/01/02 05:57:38;;;;;;;1.70;1.00;;;;;;;1.30;100.00;100047.44;5154312;27;20054;-87
2023/01/02 06:00:06;;;;;;;1.40;1.10;;;;;;;1.46;100.00;100073.91;5138554;27;20043;-87
2023/01/02 06:02:33;;;;;;;1.38;1.05;;;;;;;1.27;100.00;100050.03;5141481;27;20400;-86
2023/01/02 06:04:59;;;;;;;1.85;1.10;;;;;;;1.38;100.00;100080.88;5141038;27;20074;-86
2023/01/02 06:07:26;;;;;;;2.53;1.15;;;;;;;1.30;100.00;100053.44;5140872;27;20046;-85
2023/01/02 06:09:53;;;;;;;2.00;1.02;;;;;;;1.63;100.00;100105.56;5122323;27;20556;-86
2023/01/02 06:12:20;;;;;;;3.03;1.30;;;;;;;1.68;100.00;100128.72;5136348;27;20047;-86
2023/01/02 06:14:46;;;;;;;3.45;1.13;;;;;;;1.52;100.00;100113.41;5138130;27;20483;-86
2023/01/02 06:17:13;;;;;;;3.05;2.05;;;;;;;1.36;100.00;100087.78;5131824;27;20507;-86
2023/01/02 06:19:40;;;;;;;1.98;1.00;;;;;;;1.47;100.00;100104.88;5119420;27;20046;-86
2023/01/02 06:22:07;;;;;;;1.75;1.10;;;;;;;1.35;100.00;100111.84;5139173;27;20053;-86
2023/01/02 06:24:33;;;;;;;1.10;1.00;;;;;;;1.50;100.00;100132.34;5158941;27;20043;-86
2023/01/02 06:27:00;;;;;;;2.20;1.10;;;;;;;1.19;100.00;100080.19;5140334;27;20053;-86
2023/01/02 06:29:27;;;;;;;2.80;1.20;;;;;;;1.38;100.00;100124.72;5140443;27;20046;-87
2023/01/02 06:31:54;;;;;;;1.00;0.90;;;;;;;1.32;100.00;100115.31;5136847;27;20051;-86
2023/01/02 06:34:20;;;;;;;1.75;1.00;;;;;;;1.21;100.00;100101.69;5124929;27;20488;-86
2023/01/02 06:36:47;;;;;;;2.25;1.20;;;;;;;1.33;100.00;100135.94;5139232;27;20132;-86
2023/01/02 06:39:14;;;;;;;1.13;1.00;;;;;;;1.43;100.00;100166.81;5132778;27;20055;-86
2023/01/02 06:41:40;;;;;;;3.40;1.00;;;;;;;1.39;100.00;100152.25;5133627;27;20047;-86
2023/01/02 06:44:12;;;;;;;1.35;1.00;;;;;;;1.38;100.00;100166.00;5139838;27;20475;-86
2023/01/02 06:46:39;;;;;;;7.38;1.70;;;;;;;1.20;100.00;100148.97;5158244;27;20047;-86
2023/01/02 06:49:06;;;;;;;2.13;1.10;;;;;;;1.29;100.00;100170.38;5142833;27;20042;-86
2023/01/02 06:51:32;;;;;;;1.17;1.00;;;;;;;1.24;100.00;100155.78;5138622;27;20063;-86
2023/01/02 06:53:59;;;;;;;1.00;0.90;;;;;;;1.11;100.00;100144.72;5155619;27;20042;-87
2023/01/02 06:56:26;;;;;;;1.80;1.08;;;;;;;1.23;100.00;100177.31;5156744;27;20055;-86
2023/01/02 06:58:52;;;;;;;1.45;1.00;;;;;;;0.92;100.00;100129.44;5142688;27;20061;-86
2023/01/02 07:01:21;;;;;;;5.95;1.77;;;;;;;0.82;100.00;100127.78;5149099;27;20054;-86
2023/01/02 07:03:48;;;;;;;1.55;1.10;;;;;;;0.93;100.00;100128.53;5133225;27;20435;-85
2023/01/02 07:06:18;;;;;;;1.58;1.10;;;;;;;1.32;100.00;100179.81;5139777;27;20081;-86
2023/01/02 07:08:45;;;;;;;1.70;1.10;;;;;;;1.18;100.00;100168.75;5129835;27;20062;-85
2023/01/02 07:11:16;;;;;;;2.80;1.20;;;;;;;1.30;100.00;100202.19;5148147;27;20608;-87
2023/01/02 07:13:45;;;;;;;2.13;1.10;;;;;;;0.84;100.00;100136.34;5139253;27;20464;-87
2023/01/02 07:16:14;;;;;;;1.58;1.00;;;;;;;0.78;100.00;100127.81;5137343;27;20402;-88
2023/01/02 07:18:41;;;;;;;1.98;1.10;;;;;;;0.85;100.00;100142.34;5133875;27;20055;-87
2023/01/02 07:21:10;;;;;;;3.67;1.25;;;;;;;1.24;100.00;100203.09;5138472;27;20400;-86
2023/01/02 07:23:37;;;;;;;3.03;1.38;;;;;;;1.19;100.00;100211.72;5135620;27;20066;-84
2023/01/02 07:26:06;;;;;;;1.27;1.00;;;;;;;1.12;100.00;100209.19;5135515;27;20057;-84
2023/01/02 07:28:34;;;;;;;2.25;1.25;;;;;;;0.86;100.00;100219.69;5132268;27;20042;-84
2023/01/02 07:31:03;;;;;;;2.42;1.20;;;;;;;0.48;100.00;100169.22;5155338;27;20050;-86
2023/01/02 07:33:31;;;;;;;1.73;1.13;;;;;;;0.53;100.00;100167.50;5154204;27;20054;-84
2023/01/02 07:36:10;;;;;;;2.72;1.00;;;;;;;0.94;100.00;100219.66;5137417;27;20058;-85
2023/01/02 07:38:38;;;;;;;1.40;1.10;;;;;;;0.62;100.00;100163.13;5137519;27;20051;-86
2023/01/02 07:41:15;;;;;;;1.40;1.10;;;;;;;0.70;100.00;100190.56;5134589;27;20047;-87
2023/01/02 07:43:43;;;;;;;2.28;1.15;;;;;;;0.67;100.00;100188.00;5136865;27;20046;-88
2023/01/02 07:46:11;;;;;;;3.80;1.30;;;;;;;0.85;100.00;100192.22;5136182;27;20477;-88
2023/01/02 07:48:38;;;;;;;1.20;1.10;;;;;;;1.27;100.00;100235.72;5137025;27;20047;-87
2023/01/02 07:51:07;;;;;;;2.72;1.20;;;;;;;1.24;100.00;100217.69;5140033;27;20055;-88
2023/01/02 07:53:34;;;;;;;1.55;1.00;;;;;;;1.27;100.00;100205.63;5139778;27;20046;-87
2023/01/02 07:56:01;;;;;;;2.08;1.13;;;;;;;1.54;100.00;100246.69;5135326;27;20050;-85
2023/01/02 07:58:28;;;;;;;9.60;1.65;;;;;;;1.24;100.00;100205.69;5134575;27;20043;-85
2023/01/02 08:00:55;;;;;;;3.97;1.20;;;;;;;1.21;100.00;100225.47;5135887;27;20066;-85
2023/01/02 08:03:30;;;;;;;1.73;1.08;;;;;;;1.37;100.00;100247.69;5145905;27;20039;-85
2023/01/02 08:06:15;;;;;;;2.72;1.20;;;;;;;1.19;100.00;100228.06;5136867;27;20051;-87
2023/01/02 08:08:42;;;;;;;1.60;1.20;;;;;;;1.32;100.00;100257.19;5137032;27;20055;-87
2023/01/02 08:11:11;;;;;;;1.33;1.10;;;;;;;1.36;100.00;100258.88;5137357;27;20413;-85
2023/01/02 08:13:38;;;;;;;2.70;1.15;;;;;;;0.99;100.00;100225.59;5143261;27;20043;-87
2023/01/02 08:16:10;;;;;;;5.30;1.23;;;;;;;1.07;100.00;100241.88;5124012;27;20069;-86
2023/01/02 08:18:37;;;;;;;1.10;1.00;;;;;;;0.89;100.00;100200.78;5136977;27;20163;-85
2023/01/02 08:21:04;;;;;;;3.00;1.25;;;;;;;1.10;100.00;100247.03;5132293;27;20058;-85
2023/01/02 08:23:32;;;;;;;1.25;1.00;;;;;;;0.97;100.00;100208.44;5124823;27;20054;-84
2023/01/02 08:26:00;;;;;;;1.52;1.10;;;;;;;1.09;100.00;100239.31;5151421;27;20046;-85
2023/01/02 08:28:27;;;;;;;2.55;1.02;;;;;;;0.83;100.00;100214.53;5129442;27;20054;-86
2023/01/02 08:30:54;;;;;;;1.75;0.98;;;;;;;0.86;100.00;100237.72;5132760;27;20127;-84
2023/01/02 08:33:22;;;;;;;2.47;1.25;;;;;;;1.25;100.00;100289.06;5132307;27;20047;-85
2023/01/02 08:35:49;;;;;;;2.67;1.30;;;;;;;1.35;100.00;100295.88;5135504;27;20125;-84
2023/01/02 08:38:16;;;;;;;3.13;1.05;;;;;;;1.03;100.00;100267.72;5133175;27;20480;-86
2023/01/02 08:40:45;;;;;;;2.55;1.10;;;;;;;1.26;100.00;100306.25;5133101;27;20432;-86
2023/01/02 08:43:12;;;;;;;1.60;1.05;;;;;;;1.00;100.00;100284.03;5121246;27;20050;-87
2023/01/02 08:45:38;;;;;;;2.35;1.00;;;;;;;1.07;100.00;100306.34;5131518;27;20047;-88
2023/01/02 08:48:05;;;;;;;2.08;1.15;;;;;;;0.85;100.00;100263.50;5155385;27;20043;-88
2023/01/02 08:50:49;;;;;;;2.20;1.25;;;;;;;1.01;100.00;100300.34;5132433;27;20138;-89
2023/01/02 08:53:17;;;;;;;2.75;1.20;;;;;;;1.21;100.00;100332.06;5145314;27;20061;-88
2023/01/02 08:55:43;;;;;;;1.83;1.10;;;;;;;0.71;100.00;100248.97;5132716;27;20051;-88
2023/01/02 08:58:10;;;;;;;2.38;1.00;;;;;;;1.00;100.00;100299.50;5135739;27;20413;-89
2023/01/02 09:00:37;;;;;;;2.45;1.15;;;;;;;0.90;100.00;100284.94;5123183;27;20055;-84
2023/01/02 09:03:07;;;;;;;2.88;1.20;;;;;;;1.18;100.00;100344.13;5149649;27;20050;-85
2023/01/02 09:05:34;;;;;;;2.97;1.10;;;;;;;1.17;100.00;100347.53;5137008;27;20042;-86
2023/01/02 09:08:01;;;;;;;2.70;1.20;;;;;;;1.11;100.00;100332.97;5133614;27;20112;-87
2023/01/02 09:10:28;;;;;;;2.67;1.10;;;;;;;0.79;100.00;100297.03;5147034;27;20047;-86
2023/01/02 09:12:54;;;;;;;2.40;1.25;;;;;;;1.08;100.00;100356.19;5128552;27;20054;-87
2023/01/02 09:15:22;;;;;;;2.78;1.30;;;;;;;1.27;100.00;100370.69;5132757;27;20066;-87
2023/01/02 09:17:48;;;;;;;1.75;1.20;;;;;;;1.12;100.00;100352.75;5133118;27;20050;-86
2023/01/02 09:20:15;;;;;;;2.25;1.20;;;;;;;1.31;100.00;100382.75;5129669;27;20054;-86
2023/01/02 09:22:43;;;;;;;4.68;1.20;;;;;;;0.83;100.00;100317.63;5131211;27;20110;-86
2023/01/02 09:25:10;;;;;;;2.25;1.10;;;;;;;1.08;100.00;100340.72;5153470;27;20038;-85
2023/01/02 09:27:40;;;;;;;2.80;1.10;;;;;;;1.38;100.00;100383.56;5152091;27;20042;-85
2023/01/02 09:30:10;;;;;;;1.95;1.10;;;;;;;1.12;100.00;100332.97;5132745;27;20050;-86
2023/01/02 09:32:37;;;;;;;5.00;1.70;;;;;;;0.95;100.00;100321.88;5141357;27;20042;-87
2023/01/02 09:35:04;;;;;;;6.15;1.50;;;;;;;1.09;100.00;100345.88;5147040;27;20043;-86
2023/01/02 09:37:31;;;;;;;5.03;1.80;;;;;;;1.16;100.00;100367.31;5135195;27;20038;-87
2023/01/02 09:39:57;;;;;;;6.35;2.33;;;;;;;0.98;100.00;100327.03;5128867;27;20058;-87
2023/01/02 09:42:26;;;;;;;6.20;1.90;;;;;;;1.31;100.00;100375.00;5135296;27;20526;-87
2023/01/02 09:44:57;;;;;;;4.30;1.42;;;;;;;1.12;100.00;100363.91;5152757;27;20039;-86
2023/01/02 09:47:38;;;;;;;5.40;1.60;;;;;;;1.06;100.00;100334.72;5135576;27;20047;-86
2023/01/02 09:50:13;;;;;;;4.27;1.60;;;;;;;1.25;100.00;100364.69;5137940;27;20057;-85
2023/01/02 09:52:44;;;;;;;2.65;1.30;;;;;;;1.59;100.00;100423.84;5134774;27;20286;-86
2023/01/02 09:55:21;;;;;;;2.97;1.23;;;;;;;1.73;100.00;100416.03;5134322;27;20043;-85
2023/01/02 09:58:20;;;;;;;4.05;1.80;;;;;;;1.45;100.00;100394.69;5135263;27;20046;-86
2023/01/02 10:00:49;;;;;;;4.20;1.45;;;;;;;1.71;100.00;100423.78;5138760;27;20058;-87
2023/01/02 10:03:36;;;;;;;3.40;1.45;;;;;;;1.83;100.00;100435.75;5134565;27;20043;-85
2023/01/02 10:06:09;;;;;;;3.60;1.40;;;;;;;1.61;100.00;100403.19;5123371;27;20053;-87
2023/01/02 10:08:56;;;;;;;3.00;1.47;;;;;;;1.57;100.00;100398.94;5128849;27;20089;-86
2023/01/02 10:11:47;;;;;;;4.05;1.48;;;;;;;1.80;100.00;100445.25;5123933;27;20052;-86
2023/01/02 10:14:33;;;;;;;3.45;1.48;;;;;;;1.89;100.00;100445.19;5142831;27;20047;-86
2023/01/02 10:17:14;;;;;;;4.72;1.50;;;;;;;1.51;100.00;100374.88;5133147;27;20819;-86
2023/01/02 10:20:04;;;;;;;3.20;1.50;;;;;;;1.80;100.00;100424.59;5132294;27;20398;-85
2023/01/02 10:22:38;;;;;;;5.00;1.75;;;;;;;1.61;100.00;100380.84;5131547;27;20051;-86
2023/01/02 10:25:24;;;;;;;2.53;1.30;;;;;;;1.60;100.00;100386.88;5143389;27;20381;-85
2023/01/02 10:28:06;;;;;;;2.40;1.30;;;;;;;1.91;100.00;100417.63;5152118;27;20038;-85
2023/01/02 10:30:45;;;;;;;3.15;1.20;;;;;;;2.12;100.00;100457.94;5134381;27;20051;-85
2023/01/02 10:33:16;;;;;;;3.45;1.10;;;;;;;2.22;100.00;100446.66;5129559;27;20491;-86
2023/01/02 10:35:53;;;;;;;2.80;1.33;;;;;;;2.31;100.00;100455.22;5129409;27;20047;-85
2023/01/02 10:38:21;;;;;;;3.22;1.33;;;;;;;1.98;100.00;100432.19;5150053;27;20066;-85
2023/01/02 10:40:49;;;;;;;3.08;1.30;;;;;;;2.16;100.00;100443.25;5132837;27;20047;-85
2023/01/02 10:43:17;;;;;;;2.45;1.20;;;;;;;2.00;100.00;100452.84;5127593;27;20057;-85
2023/01/02 10:45:44;;;;;;;4.20;1.40;;;;;;;1.89;100.00;100446.06;5137007;27;20050;-85
2023/01/02 10:48:12;;;;;;;3.95;1.42;;;;;;;2.04;100.00;100452.84;5141954;27;20050;-86
2023/01/02 10:50:53;;;;;;;4.32;1.45;;;;;;;2.29;100.00;100478.47;5132092;27;20074;-86
2023/01/02 10:53:38;;;;;;;4.28;1.80;;;;;;;2.44;100.00;100499.03;5128749;27;20500;-85
2023/01/02 10:56:06;;;;;;;4.70;2.03;;;;;;;2.52;100.00;100498.13;5130226;27;20049;-85
2023/01/02 10:58:44;;;;;;;4.55;1.80;;;;;;;2.51;100.00;100488.63;5141175;27;20380;-85
2023/01/02 11:01:22;;;;;;;5.18;2.22;;;;;;;2.39;100.00;100474.09;5129257;27;20544;-84
2023/01/02 11:03:56;;;;;;;4.60;1.95;;;;;;;2.64;100.00;100501.44;5130802;27;20530;-85
2023/01/02 11:06:30;;;;;;;2.88;1.40;;;;;;;2.59;100.00;100481.69;5139839;27;20039;-85
2023/01/02 11:09:24;;;;;;;2.95;1.30;;;;;;;2.52;100.00;100480.03;5130209;27;20043;-85
2023/01/02 11:11:55;;;;;;;5.40;2.03;;;;;;;2.36;100.00;100472.41;5146298;27;20054;-86
2023/01/02 11:14:27;;;;;;;2.30;1.20;;;;;;;2.66;100.00;100491.94;5129599;27;20056;-86
2023/01/02 11:17:05;;;;;;;1.70;1.15;;;;;;;2.18;100.00;100433.78;5134513;27;20057;-86
2023/01/02 11:19:53;;;;;;;3.28;1.33;;;;;;;2.61;100.00;100506.63;5140846;27;20047;-87
2023/01/02 11:22:30;;;;;;;3.38;1.73;;;;;;;2.51;100.00;100483.47;5135496;27;20050;-86
2023/01/02 11:25:00;;;;;;;3.50;1.23;;;;;;;2.80;100.00;100520.28;5136579;27;20680;-85
2023/01/02 11:27:50;;;;;;;5.38;2.40;;;;;;;2.90;100.00;100520.19;5154525;27;20057;-86
2023/01/02 11:30:41;;;;;;;4.43;1.73;;;;;;;2.53;100.00;100472.22;5129789;27;20122;-86
2023/01/02 11:33:18;;;;;;;5.25;1.60;;;;;;;2.80;100.00;100534.94;5154490;27;20051;-86
2023/01/02 11:35:51;;;;;;;3.22;1.35;;;;;;;2.79;100.00;100528.88;5125064;27;20122;-85
2023/01/02 11:38:20;;;;;;;2.97;1.40;;;;;;;2.82;100.00;100534.03;5154495;27;20862;-86
2023/01/02 11:41:01;;;;;;;2.90;1.33;;;;;;;2.65;100.00;100502.28;5128173;27;20057;-86
2023/01/02 11:43:48;;;;;;;1.55;1.10;;;;;;;2.88;100.00;100522.78;5136280;27;20133;-86
2023/01/02 11:46:35;;;;;;;2.10;1.20;;;;;;;3.09;100.00;100537.22;5155140;27;20054;-86
2023/01/02 11:49:06;;;;;;;3.15;1.40;;;;;;;3.04;100.00;100531.25;5122857;27;20133;-86
2023/01/02 11:51:35;;;;;;;3.10;1.45;;;;;;;3.08;100.00;100530.34;5136398;27;20047;-86